Briefing drone pour Chabeuil

Rechercher une autre localisation

Conditions de vol :


Nous sommes le : Lundi 06 décembre 2021
Il est 17:06 UTC (18:06 LT)

Lever de soleil : 06:36 UTC (07:36 LT)
Coucher de soleil : 16:25 UTC (17:25 LT)

Météo

L'essentiel des conditions de vol

VIGILANCE MÉTÉO FRANCE - Drôme (26)
Pas de vigilances particulieres
METAR de LFLU
LFLU 061700Z AUTO 35005KT 9999 FEW043 OVC050 04/01 Q1017

Date d'émission: 06/12/2021
Heure d'émission: 17:00 UTC
Vent: 350° pour 5 KT (9 km/h)
Visibilité horizontale: > 10 km
Plafond :
- Peu de nuages à 4300ft (1311m)
- Couvert à 5000ft (1524m)
Température: 4 °C
Point de rosée: 1 °C
Humidité: 81%
Pression (QNH): 1017 hPa
Prévision 24h pour Valence (6 km)
Vent : 328° pour 1 KT (5 km/h)
Temperature Maxi: 8 °C
Temperature Min: 8 °C
Humidité : 69%
Condition : Couvert



Warning: count(): Parameter must be an array or an object that implements Countable in /homepages/6/d509196549/htdocs/droneoxygene/briefing.php on line 743
WEBCAM POUR CHABEUIL

Réglementation

Voler en sécurité

CARTES AERONAUTIQUE 1/500.000
CARTES VAC (LFLU)
SUP AIP




Chargement des AIP...
NOTAM (CHABEUIL + Terrain à proximité / FIR )




Chargement des NOTAMS...
CONTACT PREFECTURE 26
Drôme (26) : ddt-satem@drome.gouv.fr


Avertissement : Les données mises à disposition sont indicatives. Oxygène Drone ne pourra être tenu responsable de dégâts causés aux biens et aux personnes.